Time;durP1;ratioP1;P1;durP2;ratioP2;P2;SDS_P1;SDS_P2;PMS_P1;PMS_P2;Temp;Humidity;BMP_temperature;BMP_pressure;BME280_temperature;BME280_humidity;BME280_pressure;Samples;Min_cycle;Max_cycle;Signal;HPM_P1;HPM_P2
2022/06/23 00:00:18;;;;;;;10.17;4.47;;;18.70;99.90;;;;;;5034730;28;20464;-80
2022/06/23 00:02:45;;;;;;;9.77;4.60;;;18.70;99.90;;;;;;5035629;28;20479;-80
2022/06/23 00:05:17;;;;;;;8.33;4.53;;;18.70;99.90;;;;;;5035720;28;20471;-80
2022/06/23 00:07:47;;;;;;;7.93;4.63;;;18.70;99.90;;;;;;5035237;28;20487;-80
2022/06/23 00:10:18;;;;;;;7.90;4.70;;;18.60;99.90;;;;;;5034843;28;20460;-80
2022/06/23 00:12:46;;;;;;;10.53;4.80;;;18.60;99.90;;;;;;5033784;28;20465;-80
2022/06/23 00:15:27;;;;;;;9.80;5.27;;;18.60;99.90;;;;;;5035132;28;20445;-80
2022/06/23 00:18:02;;;;;;;10.33;5.60;;;18.60;99.90;;;;;;5034761;28;20610;-80
2022/06/23 00:20:33;;;;;;;11.03;4.47;;;18.60;99.90;;;;;;5034485;28;20479;-79
2022/06/23 00:23:06;;;;;;;9.47;4.63;;;18.60;99.90;;;;;;5034648;28;20439;-79
2022/06/23 00:25:42;;;;;;;10.20;4.83;;;18.50;99.90;;;;;;5035116;28;20468;-79
2022/06/23 00:28:16;;;;;;;7.83;5.10;;;18.50;99.90;;;;;;5033857;28;20530;-80
2022/06/23 00:30:43;;;;;;;11.87;4.47;;;18.50;99.90;;;;;;5034661;28;20459;-79
2022/06/23 00:33:18;;;;;;;14.50;5.30;;;18.40;99.90;;;;;;5033749;28;20487;-80
2022/06/23 00:35:48;;;;;;;11.33;4.83;;;18.40;99.90;;;;;;5033482;28;20456;-80
2022/06/23 00:38:22;;;;;;;10.97;5.50;;;18.40;99.90;;;;;;5034085;28;20484;-79
2022/06/23 00:40:49;;;;;;;8.70;4.60;;;18.40;99.90;;;;;;5033116;28;20533;-78
2022/06/23 00:43:17;;;;;;;10.30;4.43;;;18.30;99.90;;;;;;5033449;28;20511;-79
2022/06/23 00:45:49;;;;;;;8.40;4.80;;;18.30;99.90;;;;;;5033549;28;20488;-79
2022/06/23 00:48:26;;;;;;;9.13;4.83;;;18.30;99.90;;;;;;5033019;28;20485;-79
2022/06/23 00:51:02;;;;;;;10.03;4.90;;;18.20;99.90;;;;;;5032262;28;20484;-79
2022/06/23 00:53:34;;;;;;;7.23;4.07;;;18.20;99.90;;;;;;5032591;28;20480;-80
2022/06/23 00:56:09;;;;;;;7.30;4.53;;;18.30;99.90;;;;;;5033018;28;20496;-79
2022/06/23 00:58:41;;;;;;;7.20;4.47;;;18.30;99.90;;;;;;5033013;28;20500;-80
2022/06/23 01:01:15;;;;;;;7.37;4.43;;;18.20;99.90;;;;;;5030830;28;20491;-79
2022/06/23 01:03:50;;;;;;;9.83;4.97;;;18.20;99.90;;;;;;5032817;28;20444;-79
2022/06/23 01:06:24;;;;;;;11.70;4.70;;;18.20;99.90;;;;;;5032429;28;20460;-79
2022/06/23 01:08:56;;;;;;;8.20;4.77;;;18.20;99.90;;;;;;5032469;28;20871;-79
2022/06/23 01:11:29;;;;;;;10.60;4.37;;;18.10;99.90;;;;;;5031758;28;20484;-79
2022/06/23 01:14:11;;;;;;;6.50;4.57;;;18.10;99.90;;;;;;5032158;28;20517;-79
2022/06/23 01:16:44;;;;;;;7.60;4.73;;;18.10;99.90;;;;;;5032715;28;20504;-80
2022/06/23 01:19:49;;;;;;;7.47;4.20;;;18.00;99.90;;;;;;5031736;28;20464;-79
2022/06/23 01:22:26;;;;;;;9.97;5.40;;;17.90;99.90;;;;;;5033061;28;20465;-79
2022/06/23 01:25:02;;;;;;;10.73;6.27;;;17.90;99.90;;;;;;5032952;28;20460;-79
2022/06/23 01:30:22;;;;;;;7.85;4.70;;;17.80;99.90;;;;;;5116602;27;1203144;-79
2022/06/23 01:33:05;;;;;;;7.70;4.80;;;17.70;99.90;;;;;;5144601;28;20218;-78
2022/06/23 01:35:36;;;;;;;9.03;4.70;;;17.60;99.90;;;;;;5143982;28;20456;-79
2022/06/23 01:38:10;;;;;;;8.90;4.67;;;17.60;99.90;;;;;;5130003;28;20479;-79
2022/06/23 01:40:45;;;;;;;9.20;5.33;;;17.60;99.90;;;;;;5123414;28;20452;-79
2022/06/23 01:43:18;;;;;;;7.30;5.17;;;17.60;99.90;;;;;;5124533;28;20492;-79
2022/06/23 01:45:51;;;;;;;6.37;3.87;;;17.50;99.90;;;;;;5124799;28;20456;-79
2022/06/23 01:48:51;;;;;;;9.60;4.80;;;17.50;99.90;;;;;;5124586;28;20495;-79
2022/06/23 01:51:21;;;;;;;4.60;4.00;;;17.50;99.90;;;;;;5123844;28;20485;-79
2022/06/23 01:53:48;;;;;;;8.07;4.33;;;17.40;99.90;;;;;;5124709;28;21050;-79
2022/06/23 01:56:34;;;;;;;10.53;4.60;;;17.40;99.90;;;;;;5124407;28;20463;-78
2022/06/23 01:59:16;;;;;;;10.20;4.67;;;17.30;99.90;;;;;;5124976;28;20448;-79
2022/06/23 02:01:51;;;;;;;8.80;4.63;;;17.30;99.90;;;;;;5124707;28;20449;-78
2022/06/23 02:04:25;;;;;;;7.43;4.20;;;17.20;99.90;;;;;;5124771;28;20460;-79
2022/06/23 02:06:56;;;;;;;6.10;3.63;;;17.20;99.90;;;;;;5123856;28;20810;-79
2022/06/23 02:09:30;;;;;;;5.17;3.70;;;17.20;99.90;;;;;;5123011;28;20489;-78
2022/06/23 02:11:58;;;;;;;6.10;4.23;;;17.10;99.90;;;;;;5124500;28;20951;-79
2022/06/23 02:14:44;;;;;;;5.60;4.13;;;17.10;99.90;;;;;;5124009;28;20457;-78
2022/06/23 02:17:24;;;;;;;8.33;5.07;;;17.00;99.90;;;;;;5124292;28;20571;-78
2022/06/23 02:19:53;;;;;;;6.23;4.33;;;17.00;99.90;;;;;;5124278;28;20445;-78
2022/06/23 02:22:26;;;;;;;6.50;3.77;;;17.00;99.90;;;;;;5191145;22;20468;-76
2022/06/23 02:24:57;;;;;;;9.10;4.30;;;17.00;99.90;;;;;;5046640;28;20456;-76
2022/06/23 02:27:43;;;;;;;7.90;4.60;;;17.00;99.90;;;;;;5056288;28;20474;-76
2022/06/23 02:30:15;;;;;;;9.03;4.53;;;17.00;99.90;;;;;;5066587;28;21008;-76
2022/06/23 02:32:56;;;;;;;7.23;4.37;;;16.90;99.90;;;;;;5067422;28;20469;-76
2022/06/23 02:35:27;;;;;;;7.90;3.93;;;16.90;99.90;;;;;;5068359;28;20888;-75
2022/06/23 02:38:00;;;;;;;5.60;4.40;;;16.90;99.90;;;;;;5067257;28;20859;-76
2022/06/23 02:40:33;;;;;;;4.77;3.67;;;16.80;99.90;;;;;;5060522;28;20459;-75
2022/06/23 02:43:04;;;;;;;7.17;4.40;;;16.80;99.90;;;;;;5053687;28;20546;-76
2022/06/23 02:46:04;;;;;;;6.13;4.13;;;16.80;99.90;;;;;;5053523;28;20837;-76
2022/06/23 02:48:55;;;;;;;8.90;4.57;;;16.70;99.90;;;;;;5053045;28;20487;-75
2022/06/23 02:51:38;;;;;;;6.63;3.87;;;16.70;99.90;;;;;;5052897;28;20486;-75
2022/06/23 02:54:26;;;;;;;6.67;3.90;;;16.70;99.90;;;;;;5053304;28;20459;-75
2022/06/23 02:57:26;;;;;;;7.13;4.43;;;16.60;99.90;;;;;;5053560;28;20491;-75
2022/06/23 03:00:00;;;;;;;4.93;4.40;;;16.60;99.90;;;;;;5041294;28;20456;-76
2022/06/23 03:02:32;;;;;;;5.93;4.97;;;16.60;99.90;;;;;;5053267;28;20463;-75
2022/06/23 03:05:06;;;;;;;6.33;4.40;;;16.60;99.90;;;;;;5053250;28;20455;-75
2022/06/23 03:07:38;;;;;;;6.30;4.47;;;16.60;99.90;;;;;;5052891;28;20479;-75
2022/06/23 03:10:09;;;;;;;7.10;4.20;;;16.60;99.90;;;;;;5052482;28;20824;-76
2022/06/23 03:12:41;;;;;;;5.27;3.97;;;16.60;99.90;;;;;;5052826;28;20459;-75
2022/06/23 03:15:15;;;;;;;6.20;4.27;;;16.60;99.90;;;;;;5053059;28;20463;-76
2022/06/23 03:17:48;;;;;;;8.37;4.17;;;16.60;99.90;;;;;;5052894;28;20482;-76
2022/06/23 03:20:27;;;;;;;5.90;4.17;;;16.50;99.90;;;;;;5052163;28;20474;-75
2022/06/23 03:23:01;;;;;;;6.17;4.67;;;16.50;99.90;;;;;;5052747;28;20581;-76
2022/06/23 03:25:32;;;;;;;10.27;4.57;;;16.50;99.90;;;;;;5052502;28;20459;-76
2022/06/23 03:28:04;;;;;;;7.87;4.40;;;16.50;99.90;;;;;;5052650;28;20479;-75
2022/06/23 03:30:36;;;;;;;6.90;4.37;;;16.50;99.90;;;;;;5051912;28;20483;-75
2022/06/23 03:33:14;;;;;;;7.97;5.33;;;16.40;99.90;;;;;;5052810;28;20459;-75
2022/06/23 03:35:46;;;;;;;4.90;4.40;;;16.50;99.90;;;;;;5052603;28;20521;-76
2022/06/23 03:41:36;;;;;;;7.83;5.00;;;16.40;99.90;;;;;;5052420;28;20579;-75
2022/06/23 03:44:04;;;;;;;5.40;4.23;;;16.40;99.90;;;;;;5052473;28;20446;-75
2022/06/23 03:46:35;;;;;;;8.17;4.37;;;16.50;99.90;;;;;;5051910;28;20460;-75
2022/06/23 03:49:10;;;;;;;10.07;4.60;;;16.50;99.90;;;;;;5052468;28;21319;-75
2022/06/23 03:51:41;;;;;;;8.23;4.10;;;16.50;99.90;;;;;;5051073;28;21025;-76
2022/06/23 03:54:13;;;;;;;10.60;4.80;;;16.50;99.90;;;;;;5052124;28;20460;-75
2022/06/23 03:56:46;;;;;;;8.83;4.40;;;16.50;99.90;;;;;;5051979;28;20562;-75
2022/06/23 03:59:16;;;;;;;9.40;4.93;;;16.50;99.90;;;;;;5051723;28;20847;-75
2022/06/23 04:01:49;;;;;;;7.40;6.57;;;16.50;99.90;;;;;;5051926;28;20464;-76
2022/06/23 04:04:18;;;;;;;7.03;4.40;;;16.50;99.90;;;;;;5051984;28;20463;-76
2022/06/23 04:06:48;;;;;;;7.83;5.27;;;16.50;99.90;;;;;;5051817;28;20479;-75
2022/06/23 04:09:19;;;;;;;6.57;4.60;;;16.50;99.90;;;;;;5051225;28;20945;-76
2022/06/23 04:11:53;;;;;;;6.73;4.30;;;16.50;99.90;;;;;;5051845;28;20969;-75
2022/06/23 04:14:40;;;;;;;7.00;5.20;;;16.50;99.90;;;;;;5051729;28;20475;-75
2022/06/23 04:17:27;;;;;;;10.67;4.70;;;16.60;99.90;;;;;;5051741;28;20475;-75
2022/06/23 04:19:59;;;;;;;6.43;4.13;;;16.50;99.90;;;;;;5051323;28;20455;-75
2022/06/23 04:22:31;;;;;;;7.30;4.17;;;16.60;99.90;;;;;;5051275;28;20832;-75
2022/06/23 04:25:02;;;;;;;6.17;4.90;;;16.60;99.90;;;;;;5051682;28;20455;-75
2022/06/23 04:27:37;;;;;;;5.83;4.10;;;16.60;99.90;;;;;;5051429;28;20486;-75
2022/06/23 04:30:04;;;;;;;8.43;4.53;;;16.60;99.90;;;;;;5051282;28;20490;-75
2022/06/23 04:32:35;;;;;;;6.37;4.47;;;16.60;99.90;;;;;;5052445;28;20494;-75
2022/06/23 04:35:11;;;;;;;4.13;3.73;;;16.60;99.90;;;;;;5051544;28;20459;-75
2022/06/23 04:37:45;;;;;;;11.60;5.57;;;16.60;99.90;;;;;;5051369;28;20483;-75
2022/06/23 04:40:22;;;;;;;7.17;4.50;;;16.60;99.90;;;;;;5050799;28;20453;-75
2022/06/23 04:42:53;;;;;;;6.60;4.90;;;16.60;99.90;;;;;;5051333;28;20463;-75
2022/06/23 04:45:31;;;;;;;8.63;4.83;;;16.60;99.90;;;;;;5051223;28;20467;-75
2022/06/23 04:48:01;;;;;;;5.70;4.60;;;16.60;99.90;;;;;;5051017;28;20537;-75
2022/06/23 04:50:39;;;;;;;13.23;5.30;;;16.60;99.90;;;;;;5050604;28;20487;-75
2022/06/23 04:53:17;;;;;;;7.73;4.77;;;16.60;99.90;;;;;;5051212;28;20459;-75
2022/06/23 04:55:47;;;;;;;7.33;5.00;;;16.60;99.90;;;;;;5051034;28;20562;-75
2022/06/23 04:58:21;;;;;;;6.47;4.60;;;16.70;99.90;;;;;;5050800;28;20483;-75
2022/06/23 05:00:51;;;;;;;6.90;4.70;;;16.80;99.90;;;;;;5050708;28;20554;-75
2022/06/23 05:03:22;;;;;;;14.00;4.90;;;16.90;99.90;;;;;;5051491;28;20467;-74
2022/06/23 05:05:55;;;;;;;6.37;5.30;;;16.90;99.90;;;;;;5051271;28;20459;-75
2022/06/23 05:08:26;;;;;;;7.40;5.13;;;17.00;99.90;;;;;;5050694;28;20990;-74
2022/06/23 05:11:06;;;;;;;9.63;5.03;;;17.10;99.90;;;;;;5050586;28;20491;-75
2022/06/23 05:13:44;;;;;;;7.37;4.70;;;17.20;99.90;;;;;;5050828;28;20463;-74
2022/06/23 05:16:17;;;;;;;10.43;5.30;;;17.30;99.90;;;;;;5050894;28;20465;-75
2022/06/23 05:18:47;;;;;;;10.63;5.80;;;17.40;99.90;;;;;;5050937;28;20459;-75
2022/06/23 05:21:19;;;;;;;11.70;6.23;;;17.50;99.90;;;;;;5050452;28;20855;-75
2022/06/23 05:23:53;;;;;;;9.93;6.10;;;17.60;99.90;;;;;;5050751;28;20468;-74
2022/06/23 05:26:24;;;;;;;11.83;6.10;;;17.70;99.90;;;;;;5050767;28;20549;-75
2022/06/23 05:28:58;;;;;;;11.47;6.20;;;17.80;99.90;;;;;;5050869;28;20546;-74
2022/06/23 05:31:30;;;;;;;9.63;5.73;;;17.90;99.90;;;;;;5050941;28;20487;-75
2022/06/23 05:34:02;;;;;;;7.10;4.90;;;18.00;99.90;;;;;;5050915;28;20464;-75
2022/06/23 05:36:36;;;;;;;9.57;5.67;;;18.10;99.90;;;;;;5050575;28;20471;-74
2022/06/23 05:39:13;;;;;;;8.60;4.80;;;18.20;99.90;;;;;;5050627;28;20819;-75
2022/06/23 05:41:43;;;;;;;12.80;6.10;;;18.30;99.90;;;;;;5051463;28;20456;-75
2022/06/23 05:44:14;;;;;;;13.60;5.60;;;18.40;99.90;;;;;;5050624;28;20471;-74
2022/06/23 05:46:44;;;;;;;9.30;6.90;;;18.50;99.90;;;;;;5050601;28;20490;-75
2022/06/23 05:49:18;;;;;;;8.97;5.83;;;18.60;99.90;;;;;;5050457;28;20890;-74
2022/06/23 05:51:51;;;;;;;7.70;4.90;;;18.70;99.90;;;;;;5050597;28;20276;-73
2022/06/23 05:54:24;;;;;;;9.83;5.00;;;18.80;99.90;;;;;;5050490;28;20468;-75
2022/06/23 05:56:55;;;;;;;11.60;5.67;;;18.90;99.90;;;;;;5050522;28;20858;-75
2022/06/23 05:59:25;;;;;;;10.60;5.73;;;18.90;99.90;;;;;;5050038;28;20464;-75
2022/06/23 06:01:58;;;;;;;8.03;5.27;;;19.00;99.90;;;;;;5050320;28;20451;-74
2022/06/23 06:04:28;;;;;;;5.63;4.90;;;19.10;99.90;;;;;;5050482;28;20466;-74
2022/06/23 06:06:55;;;;;;;6.43;4.83;;;19.20;99.90;;;;;;5050614;28;20475;-75
2022/06/23 06:09:40;;;;;;;6.83;4.63;;;19.30;99.90;;;;;;5049682;28;20458;-75
2022/06/23 06:12:23;;;;;;;7.50;5.03;;;19.30;99.90;;;;;;5050489;28;20516;-75
2022/06/23 06:14:57;;;;;;;7.47;4.60;;;19.40;99.90;;;;;;5050409;28;20899;-75
2022/06/23 06:17:27;;;;;;;9.07;5.00;;;19.50;99.90;;;;;;5054160;28;20482;-75
2022/06/23 06:19:56;;;;;;;10.70;5.60;;;19.60;99.90;;;;;;5053755;28;20490;-75
2022/06/23 06:22:39;;;;;;;11.70;4.60;;;19.60;99.90;;;;;;5053738;28;20468;-73
2022/06/23 06:25:16;;;;;;;12.60;4.40;;;19.70;99.90;;;;;;5054445;28;20458;-75
2022/06/23 06:27:43;;;;;;;9.13;4.97;;;19.80;99.90;;;;;;5053735;28;20482;-75
2022/06/23 06:30:15;;;;;;;9.63;4.60;;;19.90;99.90;;;;;;5053400;28;21019;-74
2022/06/23 06:32:44;;;;;;;8.20;4.20;;;19.90;99.90;;;;;;5053507;28;20467;-75
2022/06/23 06:35:22;;;;;;;7.20;4.20;;;19.90;99.90;;;;;;5054035;28;20517;-74
2022/06/23 06:37:52;;;;;;;9.27;4.33;;;20.10;99.90;;;;;;5053802;28;20489;-74
2022/06/23 06:40:21;;;;;;;8.87;4.33;;;20.10;99.90;;;;;;5053442;28;20546;-74
2022/06/23 06:42:52;;;;;;;8.17;4.37;;;20.20;99.90;;;;;;5053543;28;20562;-74
2022/06/23 06:45:22;;;;;;;7.47;4.90;;;20.30;99.90;;;;;;5053743;28;20459;-74
2022/06/23 06:47:49;;;;;;;8.50;4.70;;;20.30;99.90;;;;;;5053203;28;20487;-75
2022/06/23 06:50:25;;;;;;;14.30;4.83;;;20.40;99.90;;;;;;5053052;28;20486;-74
2022/06/23 06:52:52;;;;;;;10.73;4.27;;;20.40;99.90;;;;;;5053566;28;20463;-74
2022/06/23 06:55:26;;;;;;;12.00;5.10;;;20.50;99.90;;;;;;5053423;28;20946;-75
2022/06/23 06:57:58;;;;;;;6.60;4.40;;;20.50;99.90;;;;;;5053211;28;20480;-75
2022/06/23 07:00:33;;;;;;;10.33;4.90;;;20.60;99.90;;;;;;5052688;28;20460;-73
2022/06/23 07:03:02;;;;;;;6.30;4.07;;;20.70;99.90;;;;;;5053178;28;20467;-74
2022/06/23 07:05:33;;;;;;;6.83;4.37;;;20.80;99.90;;;;;;5053287;28;20459;-74
2022/06/23 07:08:06;;;;;;;10.13;4.10;;;20.90;99.90;;;;;;5052879;28;20502;-74
2022/06/23 07:10:37;;;;;;;13.03;4.23;;;21.00;99.90;;;;;;5052276;28;20479;-75
2022/06/23 07:13:10;;;;;;;5.77;4.27;;;21.00;99.90;;;;;;5053069;28;20474;-74
2022/06/23 07:15:42;;;;;;;6.30;3.53;;;20.90;99.90;;;;;;5052815;28;20840;-75
2022/06/23 07:18:17;;;;;;;10.30;4.07;;;21.00;99.90;;;;;;5052883;28;20483;-74
2022/06/23 07:20:49;;;;;;;6.40;4.30;;;21.10;99.90;;;;;;5052213;28;20462;-75
2022/06/23 07:23:20;;;;;;;7.30;4.00;;;21.20;99.90;;;;;;5052809;28;20467;-74
2022/06/23 07:25:52;;;;;;;7.10;4.13;;;21.30;99.90;;;;;;5052392;28;21015;-75
2022/06/23 07:28:25;;;;;;;6.23;3.67;;;21.40;99.90;;;;;;5052710;28;20869;-74
2022/06/23 07:30:56;;;;;;;7.70;3.83;;;21.50;99.90;;;;;;5052164;28;20483;-74
2022/06/23 07:33:26;;;;;;;6.10;3.90;;;21.50;99.90;;;;;;5052879;28;20486;-75
2022/06/23 07:35:59;;;;;;;10.20;4.37;;;21.50;99.90;;;;;;5052692;28;20471;-74
2022/06/23 07:38:31;;;;;;;12.53;3.83;;;21.50;99.90;;;;;;5052619;28;20479;-75
2022/06/23 07:41:04;;;;;;;7.13;4.10;;;21.50;99.90;;;;;;5051695;28;20459;-73
2022/06/23 07:43:38;;;;;;;7.67;3.40;;;21.60;99.90;;;;;;5052456;28;20459;-74
2022/06/23 07:46:05;;;;;;;8.77;3.73;;;21.70;99.90;;;;;;5052483;28;20834;-75
2022/06/23 07:48:34;;;;;;;6.30;3.70;;;21.80;99.90;;;;;;5052234;28;20898;-75
2022/06/23 07:51:03;;;;;;;8.63;4.03;;;21.90;99.90;;;;;;5051648;28;21014;-75
2022/06/23 07:53:33;;;;;;;6.50;3.90;;;22.10;99.90;;;;;;5052392;28;20455;-74
2022/06/23 07:56:03;;;;;;;6.50;3.80;;;22.30;99.90;;;;;;5052145;28;20466;-75
2022/06/23 07:58:34;;;;;;;6.87;3.70;;;22.40;99.90;;;;;;5052128;28;20909;-75
2022/06/23 08:01:05;;;;;;;5.43;3.67;;;22.50;99.90;;;;;;5051656;28;20829;-75
2022/06/23 08:03:37;;;;;;;8.87;3.60;;;22.50;99.90;;;;;;5052200;28;20997;-75
2022/06/23 08:06:07;;;;;;;8.40;3.70;;;22.60;99.90;;;;;;5052030;28;20459;-74
2022/06/23 08:08:38;;;;;;;7.90;3.43;;;22.70;99.90;;;;;;5051833;28;20835;-75
2022/06/23 08:14:02;;;;;;;4.67;2.87;;;22.80;99.90;;;;;;5052100;28;20816;-75
2022/06/23 08:19:24;;;;;;;7.80;3.50;;;22.90;99.90;;;;;;5051425;28;20519;-75
2022/06/23 08:21:54;;;;;;;6.30;3.30;;;23.00;99.90;;;;;;5051840;28;20517;-74
2022/06/23 08:24:24;;;;;;;7.73;3.10;;;23.10;99.90;;;;;;5154647;22;20493;-69
2022/06/23 08:26:56;;;;;;;8.47;4.03;;;23.10;99.90;;;;;;5086553;28;20902;-69
2022/06/23 08:29:27;;;;;;;6.33;3.30;;;23.20;99.90;;;;;;5071282;28;20812;-69
2022/06/23 08:31:54;;;;;;;9.53;3.40;;;23.20;99.90;;;;;;5071810;28;20482;-69
2022/06/23 08:34:21;;;;;;;7.40;2.93;;;23.30;99.90;;;;;;5071468;28;20472;-68
2022/06/23 08:36:51;;;;;;;7.60;3.20;;;23.40;99.90;;;;;;5071243;28;20490;-69
2022/06/23 08:39:23;;;;;;;7.47;4.20;;;23.50;99.90;;;;;;5070534;28;20878;-69
2022/06/23 08:41:57;;;;;;;8.00;3.50;;;23.60;99.90;;;;;;5071462;28;20458;-69
2022/06/23 08:44:32;;;;;;;6.87;3.30;;;23.80;99.90;;;;;;5071486;28;20490;-69
2022/06/23 08:47:05;;;;;;;4.40;3.20;;;23.90;99.90;;;;;;5071273;28;20478;-69
2022/06/23 08:49:38;;;;;;;6.03;3.93;;;24.00;99.90;;;;;;5070730;28;20470;-69
2022/06/23 08:52:10;;;;;;;9.23;3.57;;;24.20;99.90;;;;;;5071221;28;20973;-69
2022/06/23 08:54:43;;;;;;;5.70;4.27;;;24.20;99.90;;;;;;5071381;28;20465;-68
2022/06/23 08:57:16;;;;;;;7.37;3.50;;;24.20;99.90;;;;;;5071219;28;20906;-69
2022/06/23 08:59:48;;;;;;;6.40;3.20;;;24.30;99.90;;;;;;5070632;28;20842;-69
2022/06/23 09:02:20;;;;;;;9.40;3.80;;;24.40;99.90;;;;;;5071204;28;20856;-69
2022/06/23 09:04:57;;;;;;;6.00;2.90;;;24.60;99.90;;;;;;5071138;28;20990;-69
2022/06/23 09:07:36;;;;;;;9.50;3.27;;;24.70;99.90;;;;;;5070879;28;20478;-70
2022/06/23 09:10:11;;;;;;;6.50;3.10;;;24.80;99.90;;;;;;5070858;28;20458;-69
2022/06/23 09:12:45;;;;;;;5.00;3.10;;;24.80;99.90;;;;;;5070867;28;21004;-69
2022/06/23 09:15:41;;;;;;;6.90;3.23;;;24.80;99.90;;;;;;5071243;28;20463;-69
2022/06/23 09:18:23;;;;;;;6.07;3.10;;;24.80;99.90;;;;;;5070742;28;20486;-69
2022/06/23 09:21:02;;;;;;;8.03;3.47;;;25.00;99.90;;;;;;5070421;28;20458;-69
2022/06/23 09:23:54;;;;;;;7.53;3.83;;;25.10;99.90;;;;;;5070576;28;20988;-69
2022/06/23 09:26:32;;;;;;;7.30;3.90;;;25.10;99.90;;;;;;5070882;28;20462;-68
2022/06/23 09:29:14;;;;;;;8.83;3.77;;;25.20;99.90;;;;;;5070757;28;20458;-70
2022/06/23 09:31:52;;;;;;;7.77;3.53;;;25.40;99.90;;;;;;5070667;28;20591;-69
2022/06/23 09:34:35;;;;;;;5.37;3.43;;;25.60;99.90;;;;;;5070820;28;20458;-69
2022/06/23 09:37:33;;;;;;;8.10;2.80;;;25.60;99.90;;;;;;5070858;28;20586;-69
2022/06/23 09:40:28;;;;;;;6.30;4.03;;;25.80;99.90;;;;;;5070100;28;20466;-69
2022/06/23 09:43:27;;;;;;;5.43;3.30;;;26.00;99.90;;;;;;5070704;28;20837;-69
2022/06/23 09:46:23;;;;;;;7.73;3.40;;;26.20;99.90;;;;;;5070573;28;20470;-69
2022/06/23 09:49:22;;;;;;;9.70;3.13;;;26.40;99.90;;;;;;5070521;28;20553;-69
2022/06/23 09:52:21;;;;;;;6.40;3.47;;;26.40;99.90;;;;;;5074170;28;20486;-68
2022/06/23 09:55:28;;;;;;;7.10;3.17;;;26.40;99.90;;;;;;5074417;28;20868;-69
2022/06/23 09:58:19;;;;;;;5.53;3.03;;;26.70;99.90;;;;;;5074388;28;20477;-69
2022/06/23 10:00:55;;;;;;;8.27;3.20;;;26.90;99.90;;;;;;5073835;28;20832;-69
2022/06/23 10:03:42;;;;;;;5.63;3.30;;;27.00;99.90;;;;;;5074594;28;20462;-69
2022/06/23 10:06:36;;;;;;;9.63;2.80;;;27.30;99.90;;;;;;5074283;28;20469;-69
2022/06/23 10:09:14;;;;;;;9.90;3.47;;;27.40;99.90;;;;;;5074387;28;20515;-69
2022/06/23 10:11:54;;;;;;;5.53;4.20;;;27.10;99.90;;;;;;5073993;28;21060;-69
2022/06/23 10:14:48;;;;;;;4.40;3.40;;;26.80;99.90;;;;;;5074338;28;20968;-69
2022/06/23 10:17:39;;;;;;;6.53;3.20;;;26.80;99.90;;;;;;5073883;28;20483;-69
2022/06/23 10:20:22;;;;;;;5.53;3.60;;;26.80;99.90;;;;;;5073572;28;20519;-70
2022/06/23 10:23:04;;;;;;;5.90;3.50;;;26.90;99.90;;;;;;5074092;28;20450;-69
2022/06/23 10:25:46;;;;;;;5.63;3.30;;;26.90;99.90;;;;;;5074054;28;20462;-69
2022/06/23 10:28:36;;;;;;;6.10;3.10;;;27.20;99.90;;;;;;5073853;28;20536;-69
2022/06/23 10:31:12;;;;;;;5.00;3.30;;;27.30;99.90;;;;;;5073221;28;20474;-70
2022/06/23 10:33:55;;;;;;;6.07;2.80;;;27.40;99.90;;;;;;5073889;28;20462;-69
2022/06/23 10:36:42;;;;;;;9.77;3.07;;;27.50;99.90;;;;;;5073719;28;20863;-70
2022/06/23 10:39:23;;;;;;;4.53;3.40;;;27.50;99.90;;;;;;5073463;28;20463;-69
2022/06/23 10:42:20;;;;;;;6.70;2.90;;;27.70;99.90;;;;;;5073767;28;20454;-69
2022/06/23 10:45:00;;;;;;;6.57;3.20;;;27.90;99.90;;;;;;5073586;28;20459;-68
2022/06/23 10:47:41;;;;;;;5.83;2.87;;;28.00;99.90;;;;;;5073382;28;20571;-69
2022/06/23 10:50:32;;;;;;;6.50;3.03;;;28.10;99.90;;;;;;5072957;28;20470;-70
2022/06/23 10:53:21;;;;;;;4.80;2.80;;;28.20;99.90;;;;;;5073293;28;20565;-70
2022/06/23 10:56:01;;;;;;;7.00;3.70;;;28.40;99.90;;;;;;5073085;28;20467;-69
2022/06/23 10:58:46;;;;;;;7.43;3.10;;;28.40;99.90;;;;;;5073196;28;20478;-69
2022/06/23 11:01:30;;;;;;;6.53;2.70;;;28.40;99.90;;;;;;5072406;28;20952;-70
2022/06/23 11:04:32;;;;;;;6.20;3.10;;;28.30;99.90;;;;;;5073306;28;20456;-69
2022/06/23 11:07:14;;;;;;;4.30;2.93;;;28.40;99.90;;;;;;5073025;28;21016;-69
2022/06/23 11:10:19;;;;;;;6.33;2.80;;;28.50;99.90;;;;;;5072591;28;20837;-68
2022/06/23 11:12:58;;;;;;;5.40;3.00;;;28.60;99.90;;;;;;5063655;28;20522;-70
2022/06/23 11:15:33;;;;;;;8.00;3.50;;;28.80;99.90;;;;;;5073046;28;20813;-70
2022/06/23 11:18:19;;;;;;;7.27;3.03;;;28.90;99.90;;;;;;5072726;28;20476;-69
2022/06/23 11:20:57;;;;;;;10.10;2.90;;;28.90;99.90;;;;;;5072378;28;20984;-70
2022/06/23 11:23:32;;;;;;;6.13;3.30;;;28.80;99.90;;;;;;5072733;28;20466;-70
2022/06/23 11:26:11;;;;;;;8.40;4.13;;;28.80;99.90;;;;;;5072820;28;20947;-70
2022/06/23 11:28:50;;;;;;;5.10;3.03;;;28.90;99.90;;;;;;5072461;28;20877;-69
2022/06/23 11:31:27;;;;;;;7.47;2.97;;;28.90;99.90;;;;;;5072212;28;20491;-71
2022/06/23 11:34:11;;;;;;;7.20;2.90;;;29.00;99.90;;;;;;5072546;28;20479;-70
2022/06/23 11:36:53;;;;;;;7.97;3.60;;;29.00;99.90;;;;;;5072656;28;20477;-70
2022/06/23 11:39:39;;;;;;;7.20;3.67;;;28.90;99.90;;;;;;5072125;28;20994;-70
2022/06/23 11:42:34;;;;;;;6.97;3.27;;;29.00;99.90;;;;;;5072805;28;20839;-70
2022/06/23 11:45:17;;;;;;;7.17;3.70;;;29.20;99.90;;;;;;5072653;28;20834;-70
2022/06/23 11:47:56;;;;;;;7.33;2.90;;;29.30;99.90;;;;;;5072409;28;20482;-70
2022/06/23 11:50:34;;;;;;;6.37;3.80;;;29.50;99.90;;;;;;5071963;28;20461;-71
2022/06/23 11:53:15;;;;;;;9.20;3.50;;;29.60;99.90;;;;;;5072463;28;20486;-70
2022/06/23 11:55:48;;;;;;;6.80;3.00;;;29.70;99.90;;;;;;5072193;28;20678;-70
2022/06/23 11:58:43;;;;;;;6.20;3.10;;;29.80;99.90;;;;;;5072325;28;20481;-70
2022/06/23 12:01:15;;;;;;;5.80;3.00;;;30.00;99.90;;;;;;5071674;28;20879;-70
2022/06/23 12:04:11;;;;;;;6.10;3.10;;;30.20;99.90;;;;;;5072374;28;20454;-70
2022/06/23 12:06:50;;;;;;;11.10;3.27;;;30.30;99.90;;;;;;5072253;28;20580;-70
2022/06/23 12:09:26;;;;;;;4.37;3.13;;;30.40;99.90;;;;;;5071637;28;20462;-69
2022/06/23 12:11:54;;;;;;;6.60;3.50;;;30.40;99.90;;;;;;5071873;28;20879;-69
2022/06/23 12:14:23;;;;;;;4.87;3.00;;;30.50;99.90;;;;;;5070391;28;20835;-70
2022/06/23 12:16:58;;;;;;;7.13;3.07;;;30.50;99.90;;;;;;5071776;28;20483;-69
2022/06/23 12:19:36;;;;;;;5.90;3.43;;;30.60;99.90;;;;;;5071450;28;20492;-70
2022/06/23 12:22:10;;;;;;;5.07;2.67;;;30.40;99.90;;;;;;5071973;28;20491;-69
2022/06/23 12:24:43;;;;;;;8.60;3.70;;;30.20;99.90;;;;;;5071672;28;20467;-71
2022/06/23 12:27:17;;;;;;;7.40;3.87;;;30.30;99.90;;;;;;5071509;28;20485;-70
2022/06/23 12:29:51;;;;;;;7.00;3.30;;;30.40;99.90;;;;;;5071279;28;20759;-70
2022/06/23 12:32:25;;;;;;;6.57;2.97;;;30.40;99.70;;;;;;5071466;28;20496;-70
2022/06/23 12:35:02;;;;;;;5.53;2.73;;;30.50;99.90;;;;;;5071773;28;20868;-69
2022/06/23 12:37:37;;;;;;;4.40;3.10;;;30.60;99.30;;;;;;5071319;28;20549;-70
2022/06/23 12:40:08;;;;;;;6.80;2.97;;;30.60;99.90;;;;;;5071054;28;20945;-70
2022/06/23 12:42:37;;;;;;;6.27;3.53;;;30.70;99.90;;;;;;5071286;28;21001;-68
2022/06/23 12:45:47;;;;;;;5.40;3.00;;;31.00;99.90;;;;;;5071615;28;20825;-70
2022/06/23 12:48:32;;;;;;;5.57;2.97;;;31.10;99.00;;;;;;5063681;28;20526;-70
2022/06/23 12:51:08;;;;;;;7.67;2.83;;;31.20;99.90;;;;;;5071010;28;20464;-70
2022/06/23 12:53:59;;;;;;;8.37;3.07;;;31.40;99.90;;;;;;5071172;28;20526;-70
2022/06/23 12:56:48;;;;;;;7.50;3.20;;;31.50;99.00;;;;;;5071032;28;20464;-70
2022/06/23 12:59:21;;;;;;;6.37;3.90;;;31.60;99.80;;;;;;5070894;28;20486;-68
2022/06/23 13:01:56;;;;;;;4.20;2.87;;;31.60;99.70;;;;;;5071530;28;20481;-70
2022/06/23 13:04:30;;;;;;;7.03;3.27;;;31.60;99.90;;;;;;5071048;28;20560;-70
2022/06/23 13:07:04;;;;;;;7.27;3.07;;;31.80;99.60;;;;;;5071351;28;20476;-70
2022/06/23 13:09:39;;;;;;;10.60;3.00;;;31.80;98.80;;;;;;5070443;28;20859;-70
2022/06/23 13:12:10;;;;;;;7.20;3.10;;;31.60;96.70;;;;;;5070927;28;21008;-70
2022/06/23 13:14:42;;;;;;;8.80;2.80;;;31.50;98.30;;;;;;5071161;28;20469;-70
2022/06/23 13:17:21;;;;;;;5.67;3.87;;;31.50;98.80;;;;;;5071137;28;20492;-70
2022/06/23 13:19:54;;;;;;;7.60;4.70;;;31.20;98.20;;;;;;5070750;28;20456;-70
2022/06/23 13:22:21;;;;;;;6.10;3.77;;;31.20;99.60;;;;;;5070811;28;20466;-70
2022/06/23 13:24:53;;;;;;;7.63;3.87;;;31.30;99.90;;;;;;5070647;28;20479;-70
2022/06/23 13:27:23;;;;;;;6.30;3.00;;;31.40;97.90;;;;;;5070776;28;20482;-71
2022/06/23 13:29:55;;;;;;;5.37;2.87;;;31.50;99.10;;;;;;5070387;28;20461;-70
2022/06/23 13:32:28;;;;;;;5.80;3.17;;;31.50;98.30;;;;;;5070615;28;20493;-71
2022/06/23 13:35:00;;;;;;;4.80;2.57;;;31.60;97.90;;;;;;5070991;28;20458;-70
2022/06/23 13:37:34;;;;;;;6.10;3.63;;;31.70;97.40;;;;;;5070515;28;21038;-70
2022/06/23 13:40:13;;;;;;;5.73;3.37;;;31.50;95.90;;;;;;5072191;28;20461;-71
2022/06/23 13:42:45;;;;;;;4.97;3.27;;;31.20;96.10;;;;;;5070772;28;20456;-70